Destin, FL

2:17 AM CDT on September 02, 2014 (GMT -0500)
Willow Bend | Change Station
CLOSE
Current Station
Personal Weather Station
Location: Fort Walton Beach, FL
Elevation: 66 ft
Nearby Weather Stations
Active Advisory: Coastal Hazard Statement

Elev 66 ft 30.46 °N, 86.66 °W | Updated 4 minutes ago

Clear
Clear
75.7 °F
Feels Like 75 °F
N
0.0
Wind Variable Wind from NE

Today
High -- | Low -- °F
--% Chance of Precip.
Yesterday
High -- | Low -- °F
Precip. -- in
6:23 AM 7:07 PM
Waxing Crescent, 48% visible
Pressure 30.03 in
Visibility 10.0 miles
Clouds Clear
Heat Index 75 °F
Dew Point 74 °F
Humidity 94%
Rainfall 0.00 in
Snow Depth Not available.
UV 0 out of 12
Pollen 8.60 out of 12
Air Quality Not available.
Flu Activity Not available.
METAR KDTS 020653Z AUTO VRB04KT 10SM CLR 29/24 A3003 RMK AO2 SLP169 T02940244 TSNO

More Conditions Fewer Conditions

Pressure 30.03 in
Visibility 10.0 miles
Clouds Clear
Heat Index 75 °F
Dew Point 74 °F
Humidity 94%
Rainfall 0.00 in
Snow Depth Not available.
UV 0 out of 12
Pollen 8.60 out of 12
Air Quality Not available.
Flu Activity Not available.
METAR KDTS 020653Z AUTO VRB04KT 10SM CLR 29/24 A3003 RMK AO2 SLP169 T02940244 TSNO

More Conditions Fewer Conditions

10-Day Weather Forecast

Almanac

Astronomy

Sep. 02, 2014 Rise Set
Actual Time 6:23 AM CDT 7:07 PM CDT
Civil Twilight 5:58 AM CDT 7:31 PM CDT
Nautical Twilight 5:29 AM CDT 8:00 PM CDT
Astronomical Twilight 5:00 AM CDT 8:29 PM CDT
Moon 1:37 PM CDT No Moon Set
Length of Visible Light 13h 33m
Length of Day
12h 44m
Tomorrow will be 1m 46s shorter.
Waxing Crescent, 48% of the Moon is Illuminated
Today
Waxing Crescent
Sep 2
First Quarter
Sep 8
Full
Sep 15
Last Quarter
Sep 24
New

Today's Extremes

State Highs State Lows

Community

WunderPhotos

Upload Photos

1,749,589 photos uploaded!

WunderBlogs® & News

Nearby

Air Quality

  Air Quality AQ Index Pollutant
Yesterday Moderate
PM2.5
Tuesday Good
OZONE
Tuesday Good
PM2.5

Snow Depth

Station Depth Elevation
No new snow has been reported.

Earthquake Activity

City Distance Mag. Time & Date
No recent earthquake activity has been reported nearby.
Minimum magnitude displayed is 2.5.

Coastal Water Temperatures

Place Temperature
No Stations Reporting

Nearby Weather Stations